Time;durP1;ratioP1;P1;durP2;ratioP2;P2;SDS_P1;SDS_P2;PMS_P1;PMS_P2;Temp;Humidity;BMP_temperature;BMP_pressure;BME280_temperature;BME280_humidity;BME280_pressure;Samples;Min_cycle;Max_cycle;Signal;HPM_P1;HPM_P2
2022/08/09 00:01:05;;;;;;;9.77;6.60;;;15.70;85.20;;;;;;5101106;27;20050;-76
2022/08/09 00:03:30;;;;;;;8.98;6.70;;;15.70;85.30;;;;;;5118125;27;20115;-76
2022/08/09 00:05:56;;;;;;;7.35;6.50;;;15.70;85.30;;;;;;5118070;27;20120;-77
2022/08/09 00:08:22;;;;;;;9.07;6.25;;;15.70;85.30;;;;;;5118165;27;20043;-76
2022/08/09 00:10:47;;;;;;;9.23;6.25;;;15.70;85.30;;;;;;5118252;27;20057;-77
2022/08/09 00:13:14;;;;;;;7.13;6.22;;;15.70;85.50;;;;;;5117898;27;20466;-75
2022/08/09 00:15:40;;;;;;;7.90;7.07;;;15.70;85.60;;;;;;5118057;27;20403;-76
2022/08/09 00:18:06;;;;;;;7.30;6.55;;;15.70;85.60;;;;;;5117735;27;20068;-76
2022/08/09 00:20:32;;;;;;;7.32;5.65;;;15.60;85.70;;;;;;5117684;27;20042;-77
2022/08/09 00:22:57;;;;;;;7.28;5.68;;;15.60;85.70;;;;;;5117678;27;20043;-76
2022/08/09 00:25:23;;;;;;;9.63;6.50;;;15.60;85.70;;;;;;5100550;27;20047;-75
2022/08/09 00:27:49;;;;;;;7.20;6.30;;;15.60;85.60;;;;;;5117487;27;20046;-76
2022/08/09 00:30:14;;;;;;;8.82;5.97;;;15.60;85.70;;;;;;5117702;27;20043;-75
2022/08/09 00:32:40;;;;;;;7.88;6.82;;;15.60;85.90;;;;;;5100445;27;20603;-76
2022/08/09 00:35:07;;;;;;;7.40;6.13;;;15.50;86.20;;;;;;5117830;27;20043;-77
2022/08/09 00:37:33;;;;;;;9.07;7.13;;;15.50;86.10;;;;;;5117695;27;20122;-75
2022/08/09 00:39:58;;;;;;;6.88;6.05;;;15.50;85.90;;;;;;5117382;27;20156;-75
2022/08/09 00:42:27;;;;;;;8.38;7.22;;;15.50;86.20;;;;;;5099637;27;20043;-76
2022/08/09 00:44:53;;;;;;;8.60;6.25;;;15.50;86.50;;;;;;5117769;27;20158;-76
2022/08/09 00:47:20;;;;;;;9.13;6.45;;;15.50;86.60;;;;;;5117491;27;20043;-76
2022/08/09 00:49:47;;;;;;;9.48;6.60;;;15.50;86.50;;;;;;5117243;27;20487;-75
2022/08/09 00:52:13;;;;;;;7.72;6.80;;;15.50;86.60;;;;;;5117574;27;20483;-77
2022/08/09 00:54:38;;;;;;;7.47;6.15;;;15.50;86.50;;;;;;5134588;27;20095;-78
2022/08/09 00:57:05;;;;;;;7.47;6.65;;;15.50;86.60;;;;;;5100107;27;20045;-76
2022/08/09 00:59:31;;;;;;;8.23;6.20;;;15.50;86.60;;;;;;5117407;27;20511;-76
2022/08/09 01:02:00;;;;;;;7.38;5.90;;;15.50;86.60;;;;;;5100406;27;20035;-76
2022/08/09 01:04:45;;;;;;;8.25;6.13;;;15.50;86.60;;;;;;5117364;27;20051;-75
2022/08/09 01:07:32;;;;;;;;;;;15.50;86.80;;;;;;5117489;27;20047;-77
2022/08/09 01:10:03;;;;;;;5.97;4.90;;;15.40;87.40;;;;;;5117028;27;19915;-75
2022/08/09 01:12:40;;;;;;;6.00;5.05;;;15.40;86.80;;;;;;5099975;27;20050;-77
2022/08/09 01:15:10;;;;;;;5.15;4.65;;;15.40;86.50;;;;;;5116917;27;20047;-75
2022/08/09 01:17:42;;;;;;;4.57;4.15;;;15.40;86.40;;;;;;5116924;27;20088;-75
2022/08/09 01:20:31;;;;;;;4.40;4.00;;;15.40;86.70;;;;;;5116826;27;20061;-76
2022/08/09 01:23:10;;;;;;;6.55;3.85;;;15.40;86.90;;;;;;5116894;27;20525;-77
2022/08/09 01:26:01;;;;;;;5.75;4.40;;;15.30;86.90;;;;;;5116846;27;20051;-75
2022/08/09 01:28:27;;;;;;;7.55;4.55;;;15.20;87.00;;;;;;5116812;27;20043;-76
2022/08/09 01:30:56;;;;;;;5.70;4.28;;;15.20;86.90;;;;;;5116560;27;20039;-76
2022/08/09 01:33:26;;;;;;;6.38;5.10;;;15.20;86.70;;;;;;5116505;27;20043;-75
2022/08/09 01:36:05;;;;;;;5.85;4.85;;;15.20;86.70;;;;;;5099690;27;20057;-77
2022/08/09 01:38:36;;;;;;;7.03;4.93;;;15.20;86.90;;;;;;5116296;27;20499;-74
2022/08/09 01:41:08;;;;;;;6.43;5.15;;;15.20;87.00;;;;;;5133586;27;20038;-76
2022/08/09 01:43:36;;;;;;;8.07;5.63;;;15.20;86.90;;;;;;5116447;27;20122;-75
2022/08/09 01:46:03;;;;;;;6.63;5.45;;;15.20;87.00;;;;;;5116406;27;20047;-75
2022/08/09 01:48:30;;;;;;;6.47;5.78;;;15.20;87.10;;;;;;5116268;27;20043;-76
2022/08/09 01:50:58;;;;;;;9.02;6.10;;;15.20;87.00;;;;;;5116094;27;20092;-76
2022/08/09 01:53:25;;;;;;;5.72;4.90;;;15.20;87.10;;;;;;5115984;27;20077;-76
2022/08/09 01:55:52;;;;;;;6.35;5.70;;;15.20;87.20;;;;;;5099469;27;20475;-76
2022/08/09 01:58:19;;;;;;;7.78;6.07;;;15.20;87.30;;;;;;5116335;27;20050;-77
2022/08/09 02:00:46;;;;;;;8.38;5.47;;;15.20;87.20;;;;;;5116064;27;20096;-76
2022/08/09 02:03:14;;;;;;;6.72;5.65;;;15.10;87.10;;;;;;5099539;28;20368;-77
2022/08/09 02:05:43;;;;;;;6.20;4.55;;;15.10;87.20;;;;;;5133110;27;20047;-77
2022/08/09 02:08:13;;;;;;;6.88;4.10;;;15.00;87.30;;;;;;5116075;28;20077;-75
2022/08/09 02:10:44;;;;;;;4.32;3.40;;;15.00;87.20;;;;;;5099375;27;20164;-76
2022/08/09 02:13:11;;;;;;;4.50;3.25;;;14.90;87.20;;;;;;5116020;27;20051;-75
2022/08/09 02:15:48;;;;;;;5.28;4.07;;;14.90;87.30;;;;;;5115827;28;20035;-77
2022/08/09 02:18:17;;;;;;;6.03;4.40;;;14.80;87.50;;;;;;5098672;28;20471;-77
2022/08/09 02:20:47;;;;;;;5.25;3.95;;;14.90;87.70;;;;;;5098661;28;20467;-77
2022/08/09 02:23:15;;;;;;;4.25;3.85;;;14.90;87.80;;;;;;5115838;28;20070;-76
2022/08/09 02:25:42;;;;;;;6.00;4.10;;;14.80;87.60;;;;;;5098892;28;20502;-76
2022/08/09 02:28:23;;;;;;;5.13;4.20;;;14.80;87.70;;;;;;5099239;28;20054;-76
2022/08/09 02:31:12;;;;;;;4.05;3.65;;;14.70;87.80;;;;;;5098832;28;20044;-76
2022/08/09 02:33:42;;;;;;;5.65;4.30;;;14.70;87.80;;;;;;5116145;28;20035;-76
2022/08/09 02:36:15;;;;;;;4.25;3.83;;;14.70;87.70;;;;;;5116059;28;20364;-76
2022/08/09 02:38:54;;;;;;;5.75;4.43;;;14.70;87.70;;;;;;5115907;28;20097;-75
2022/08/09 02:41:26;;;;;;;6.15;4.03;;;14.70;87.70;;;;;;5115675;28;20070;-75
2022/08/09 02:43:55;;;;;;;4.63;3.63;;;14.60;87.70;;;;;;5099006;28;20043;-76
2022/08/09 02:46:26;;;;;;;4.13;3.00;;;14.60;87.80;;;;;;5132860;28;20047;-76
2022/08/09 02:48:55;;;;;;;4.38;3.38;;;14.60;87.70;;;;;;5098658;28;20043;-77
2022/08/09 02:51:23;;;;;;;6.43;3.75;;;14.50;87.60;;;;;;5115564;28;20043;-76
2022/08/09 02:53:54;;;;;;;4.15;3.50;;;14.50;87.60;;;;;;5115715;28;20114;-76
2022/08/09 02:56:22;;;;;;;4.20;3.13;;;14.50;87.70;;;;;;5115668;28;20047;-75
2022/08/09 02:58:49;;;;;;;4.18;3.50;;;14.50;87.80;;;;;;5115565;28;20043;-77
2022/08/09 03:01:17;;;;;;;5.57;4.55;;;14.50;87.80;;;;;;5115401;28;20046;-76
2022/08/09 03:03:44;;;;;;;4.55;4.03;;;14.50;87.90;;;;;;5115776;27;20047;-76
2022/08/09 03:06:13;;;;;;;5.93;4.05;;;14.50;87.90;;;;;;5118506;27;20055;-77
2022/08/09 03:08:50;;;;;;;5.95;4.43;;;14.50;88.00;;;;;;5119369;27;20471;-76
2022/08/09 03:11:18;;;;;;;6.22;4.50;;;14.50;87.90;;;;;;5119644;27;20387;-76
2022/08/09 03:13:46;;;;;;;5.95;4.18;;;14.50;87.90;;;;;;5119264;27;20043;-75
2022/08/09 03:16:14;;;;;;;7.93;4.82;;;14.50;87.90;;;;;;5119245;27;20035;-76
2022/08/09 03:18:41;;;;;;;6.00;4.53;;;14.40;87.90;;;;;;5119326;27;20047;-77
2022/08/09 03:21:08;;;;;;;4.63;4.03;;;14.40;88.00;;;;;;5119158;27;20035;-75
2022/08/09 03:23:34;;;;;;;6.05;3.65;;;14.30;88.10;;;;;;5119122;27;20046;-76
2022/08/09 03:26:01;;;;;;;6.05;4.50;;;14.30;88.20;;;;;;5119078;27;20047;-75
2022/08/09 03:28:29;;;;;;;6.38;4.63;;;14.30;88.10;;;;;;5118865;27;20064;-74
2022/08/09 03:30:55;;;;;;;4.97;4.47;;;14.30;88.10;;;;;;5119004;27;20395;-77
2022/08/09 03:33:22;;;;;;;8.48;5.75;;;14.30;88.10;;;;;;5118582;27;20487;-75
2022/08/09 03:35:52;;;;;;;5.85;4.78;;;14.20;88.20;;;;;;5118644;27;20043;-76
2022/08/09 03:38:17;;;;;;;4.60;4.20;;;14.30;88.40;;;;;;5118410;27;20096;-76
2022/08/09 03:40:43;;;;;;;5.65;5.05;;;14.30;88.30;;;;;;5118530;27;20051;-76
2022/08/09 03:43:09;;;;;;;5.88;5.28;;;14.30;88.40;;;;;;5101443;27;20039;-76
2022/08/09 03:45:35;;;;;;;7.22;5.05;;;14.30;88.40;;;;;;5118526;27;20042;-75
2022/08/09 03:48:02;;;;;;;6.32;4.78;;;14.40;88.60;;;;;;5118596;27;20126;-74
2022/08/09 03:50:28;;;;;;;5.85;4.80;;;14.40;88.60;;;;;;5101676;27;20043;-75
2022/08/09 03:52:58;;;;;;;7.20;5.30;;;14.40;88.70;;;;;;5118744;27;20437;-75
2022/08/09 03:55:25;;;;;;;5.20;4.70;;;14.40;88.60;;;;;;5118175;27;20031;-77
2022/08/09 03:57:52;;;;;;;6.30;4.65;;;14.40;88.70;;;;;;5118293;27;20043;-76
2022/08/09 04:00:18;;;;;;;5.07;4.45;;;14.40;88.90;;;;;;5101084;27;20047;-76
2022/08/09 04:02:45;;;;;;;7.28;3.75;;;14.40;88.80;;;;;;5118048;27;20046;-77
2022/08/09 04:05:12;;;;;;;5.60;4.60;;;14.40;88.60;;;;;;5135003;27;20482;-76
2022/08/09 04:07:38;;;;;;;4.20;3.35;;;14.40;88.60;;;;;;5117870;27;20394;-78
2022/08/09 04:10:04;;;;;;;4.63;3.30;;;14.40;88.70;;;;;;5100828;27;20065;-76
2022/08/09 04:12:46;;;;;;;4.70;3.53;;;14.40;88.80;;;;;;5117880;27;20039;-74
2022/08/09 04:15:13;;;;;;;4.85;3.75;;;14.30;88.70;;;;;;5101064;27;20478;-76
2022/08/09 04:17:40;;;;;;;5.25;4.35;;;14.40;88.70;;;;;;5100959;27;20104;-76
2022/08/09 04:20:08;;;;;;;6.00;4.07;;;14.30;88.80;;;;;;5118259;27;20078;-76
2022/08/09 04:22:35;;;;;;;7.18;4.90;;;14.30;88.80;;;;;;5118234;27;20039;-75
2022/08/09 04:25:01;;;;;;;5.43;4.68;;;14.30;88.90;;;;;;5117876;27;20039;-74
2022/08/09 04:27:27;;;;;;;8.18;5.82;;;14.30;89.00;;;;;;5117613;27;20039;-76
2022/08/09 04:29:53;;;;;;;8.63;5.65;;;14.20;89.10;;;;;;5117698;27;20039;-75
2022/08/09 04:32:19;;;;;;;8.10;5.50;;;14.30;89.10;;;;;;5134714;27;20031;-74
2022/08/09 04:34:44;;;;;;;7.90;5.80;;;14.30;89.30;;;;;;5117908;27;20091;-76
2022/08/09 04:37:10;;;;;;;7.35;5.20;;;14.30;89.50;;;;;;5100734;27;20434;-75
2022/08/09 04:39:37;;;;;;;6.75;5.10;;;14.30;89.60;;;;;;5094913;28;20058;-74
2022/08/09 04:42:02;;;;;;;6.07;4.60;;;14.30;89.60;;;;;;5097435;28;20455;-76
2022/08/09 04:44:31;;;;;;;8.40;5.13;;;14.30;89.60;;;;;;5131359;27;20088;-75
2022/08/09 04:46:58;;;;;;;5.68;4.95;;;14.30;89.50;;;;;;5097182;28;20187;-76
2022/08/09 04:49:24;;;;;;;5.28;4.75;;;14.30;89.40;;;;;;5096938;28;20048;-76
2022/08/09 04:51:50;;;;;;;7.38;6.10;;;14.40;89.40;;;;;;5114139;28;20136;-75
2022/08/09 04:54:16;;;;;;;5.32;4.82;;;14.40;89.30;;;;;;5096873;28;20078;-76
2022/08/09 04:56:41;;;;;;;6.65;5.53;;;14.40;89.30;;;;;;5130959;27;20038;-75
2022/08/09 04:59:07;;;;;;;7.00;4.95;;;14.40;89.30;;;;;;5097267;28;20071;-74
2022/08/09 05:01:33;;;;;;;7.20;4.88;;;14.40;89.30;;;;;;5097004;28;20040;-75
2022/08/09 05:03:59;;;;;;;8.05;4.75;;;14.50;89.20;;;;;;5096929;28;20556;-75
2022/08/09 05:06:24;;;;;;;6.20;4.88;;;14.50;89.20;;;;;;5113924;28;20372;-76
2022/08/09 05:08:50;;;;;;;5.30;4.72;;;14.50;89.10;;;;;;5096615;28;20043;-75
2022/08/09 05:11:16;;;;;;;6.15;4.70;;;14.50;89.10;;;;;;5096620;28;20390;-77
2022/08/09 05:13:41;;;;;;;7.95;5.15;;;14.60;89.00;;;;;;5096545;28;20035;-75
2022/08/09 05:16:08;;;;;;;6.53;5.50;;;14.50;89.10;;;;;;5131007;27;20032;-75
2022/08/09 05:18:34;;;;;;;8.02;5.97;;;14.60;89.10;;;;;;5130850;27;20035;-75
2022/08/09 05:21:00;;;;;;;7.78;6.10;;;14.70;89.20;;;;;;5113191;28;20050;-76
2022/08/09 05:23:25;;;;;;;9.45;6.03;;;14.70;89.40;;;;;;5096303;28;20039;-75
2022/08/09 05:25:51;;;;;;;8.00;5.88;;;14.80;89.50;;;;;;5113301;28;20043;-76
2022/08/09 05:28:18;;;;;;;7.72;6.25;;;14.90;89.50;;;;;;5095417;28;20047;-75
2022/08/09 05:30:44;;;;;;;6.90;5.53;;;15.00;89.50;;;;;;5113099;28;20044;-76
2022/08/09 05:33:10;;;;;;;9.32;6.05;;;15.00;89.40;;;;;;5130471;27;20403;-75
2022/08/09 05:35:35;;;;;;;9.73;6.35;;;15.00;89.50;;;;;;5096206;28;20042;-75
2022/08/09 05:38:01;;;;;;;7.72;6.07;;;15.00;89.50;;;;;;5130254;27;20043;-74
2022/08/09 05:40:27;;;;;;;6.25;5.10;;;15.20;89.50;;;;;;5112756;28;20087;-75
2022/08/09 05:42:54;;;;;;;10.52;6.65;;;15.20;89.50;;;;;;5112926;28;20047;-76
2022/08/09 05:45:21;;;;;;;9.48;6.60;;;15.30;89.40;;;;;;5112892;28;20047;-77
2022/08/09 05:47:47;;;;;;;10.65;6.72;;;15.40;89.60;;;;;;5096005;28;20438;-75
2022/08/09 05:50:13;;;;;;;12.32;6.95;;;15.40;89.70;;;;;;5112706;28;20035;-76
2022/08/09 05:52:40;;;;;;;10.20;7.18;;;15.50;89.70;;;;;;5112797;28;20050;-76
2022/08/09 05:55:06;;;;;;;11.10;6.80;;;15.50;89.70;;;;;;5112996;28;20032;-76
2022/08/09 05:57:33;;;;;;;7.63;6.38;;;15.60;89.80;;;;;;5112708;28;20039;-76
2022/08/09 05:59:59;;;;;;;11.55;6.45;;;15.70;89.60;;;;;;5113083;28;20062;-76
2022/08/09 06:02:25;;;;;;;6.03;4.03;;;15.70;89.70;;;;;;5096003;28;20495;-78
2022/08/09 06:04:50;;;;;;;5.50;4.28;;;15.80;89.60;;;;;;5113034;28;20126;-78
2022/08/09 06:07:16;;;;;;;9.23;4.97;;;15.90;89.30;;;;;;5112725;28;20078;-77
2022/08/09 06:09:42;;;;;;;8.70;5.47;;;16.00;89.10;;;;;;5112777;28;20459;-77
2022/08/09 06:12:07;;;;;;;4.20;3.35;;;16.00;88.80;;;;;;5112913;28;20031;-75
2022/08/09 06:14:33;;;;;;;8.18;5.43;;;16.20;88.70;;;;;;5095948;28;20106;-75
2022/08/09 06:16:59;;;;;;;9.50;4.95;;;16.20;88.40;;;;;;5095728;28;20506;-77
2022/08/09 06:19:25;;;;;;;7.22;5.20;;;16.40;88.30;;;;;;5095466;28;20074;-76
2022/08/09 06:21:50;;;;;;;7.97;5.65;;;16.50;88.20;;;;;;5095436;28;20444;-75
2022/08/09 06:24:16;;;;;;;10.02;6.18;;;16.50;88.10;;;;;;5095676;28;20039;-76
2022/08/09 06:26:42;;;;;;;9.65;7.13;;;16.60;88.10;;;;;;5095521;28;20498;-77
2022/08/09 06:29:09;;;;;;;4.97;4.38;;;16.70;88.00;;;;;;5095422;28;20051;-75
2022/08/09 06:31:36;;;;;;;8.90;4.63;;;16.70;88.30;;;;;;5110956;28;20043;-75
2022/08/09 06:34:05;;;;;;;8.40;4.38;;;16.80;87.90;;;;;;5106516;28;20130;-75
2022/08/09 06:36:30;;;;;;;9.55;5.32;;;16.90;87.80;;;;;;5106470;28;20384;-75
2022/08/09 06:38:57;;;;;;;7.93;5.47;;;17.00;87.60;;;;;;5073649;28;20048;-75
2022/08/09 06:41:26;;;;;;;6.63;5.50;;;17.10;87.40;;;;;;5077050;28;20047;-75
2022/08/09 06:43:52;;;;;;;6.55;4.35;;;17.10;87.30;;;;;;5095325;28;20035;-75
2022/08/09 06:46:18;;;;;;;7.63;6.13;;;17.20;87.20;;;;;;5112565;28;20476;-75
2022/08/09 06:48:43;;;;;;;7.82;5.82;;;17.30;87.10;;;;;;5112509;28;20051;-74
2022/08/09 06:51:10;;;;;;;7.15;6.25;;;17.50;87.10;;;;;;5112088;28;20036;-75
2022/08/09 06:53:36;;;;;;;9.10;5.70;;;17.50;87.20;;;;;;5112030;28;20473;-76
2022/08/09 06:56:03;;;;;;;7.68;5.35;;;17.50;87.20;;;;;;5044984;28;20079;-76
2022/08/09 06:58:29;;;;;;;7.93;7.00;;;17.60;87.10;;;;;;5112239;28;20035;-75
2022/08/09 07:00:55;;;;;;;6.55;4.88;;;17.80;87.00;;;;;;5112047;28;20040;-76
2022/08/09 07:03:22;;;;;;;9.30;6.75;;;17.80;87.00;;;;;;5078382;28;20135;-77
2022/08/09 07:05:49;;;;;;;10.50;7.10;;;17.90;86.80;;;;;;5112381;28;20048;-78
2022/08/09 07:08:15;;;;;;;9.73;6.82;;;18.00;86.80;;;;;;5078337;28;20488;-78
2022/08/09 07:10:41;;;;;;;9.65;5.93;;;18.00;86.80;;;;;;5112306;28;20035;-76
2022/08/09 07:13:07;;;;;;;9.77;5.70;;;18.10;86.70;;;;;;5112101;28;20036;-76
2022/08/09 07:15:33;;;;;;;7.10;5.30;;;18.20;86.50;;;;;;5112125;28;20046;-79
2022/08/09 07:17:59;;;;;;;9.45;5.50;;;18.30;86.30;;;;;;5078155;28;20040;-78
2022/08/09 07:20:25;;;;;;;7.13;6.03;;;18.40;86.40;;;;;;5112040;28;20047;-78
2022/08/09 07:22:51;;;;;;;8.40;5.90;;;18.50;86.10;;;;;;5111893;28;20046;-76
2022/08/09 07:25:17;;;;;;;6.40;5.05;;;18.60;85.90;;;;;;5111872;28;20055;-76
2022/08/09 07:27:43;;;;;;;6.07;3.70;;;18.70;85.70;;;;;;5095039;28;20450;-76
2022/08/09 07:30:12;;;;;;;4.55;3.38;;;18.70;85.30;;;;;;5112085;28;20043;-76
2022/08/09 07:32:42;;;;;;;5.50;3.53;;;18.80;84.60;;;;;;5111778;28;20036;-77
2022/08/09 07:35:10;;;;;;;6.55;4.47;;;18.90;84.30;;;;;;5111760;28;20036;-77
2022/08/09 07:37:36;;;;;;;7.20;4.00;;;18.90;84.20;;;;;;5111700;28;20046;-78
2022/08/09 07:40:02;;;;;;;5.18;3.97;;;19.00;83.80;;;;;;5111493;28;20518;-77
2022/08/09 07:42:28;;;;;;;6.45;3.70;;;19.10;83.70;;;;;;5094549;28;20051;-77
2022/08/09 07:44:55;;;;;;;5.10;2.95;;;19.30;83.50;;;;;;5109519;28;20044;-78
2022/08/09 07:47:21;;;;;;;4.68;3.40;;;19.40;83.10;;;;;;5073746;28;20043;-75
2022/08/09 07:49:47;;;;;;;5.30;2.95;;;19.40;82.50;;;;;;5055942;28;20039;-78
2022/08/09 07:52:13;;;;;;;6.00;3.22;;;19.50;82.00;;;;;;5070520;28;20393;-76
2022/08/09 07:54:39;;;;;;;4.50;2.50;;;19.60;81.80;;;;;;5105330;28;20046;-76
2022/08/09 07:57:05;;;;;;;4.70;2.50;;;19.70;81.60;;;;;;5086359;28;20048;-77
2022/08/09 07:59:31;;;;;;;5.35;2.55;;;19.90;81.30;;;;;;5079857;28;20039;-77
2022/08/09 08:01:57;;;;;;;11.48;3.35;;;20.00;80.70;;;;;;5080834;28;20071;-79
2022/08/09 08:04:22;;;;;;;6.30;2.03;;;20.10;80.30;;;;;;5082169;28;20066;-79
2022/08/09 08:06:48;;;;;;;8.25;1.83;;;20.20;79.60;;;;;;5104056;28;20048;-79
2022/08/09 08:09:15;;;;;;;3.85;1.92;;;20.20;79.10;;;;;;5070810;28;20040;-77
2022/08/09 08:11:41;;;;;;;11.48;2.22;;;20.40;78.80;;;;;;5076285;28;20051;-77
2022/08/09 08:14:07;;;;;;;2.58;1.60;;;20.40;78.80;;;;;;5104827;28;20040;-78
2022/08/09 08:16:32;;;;;;;4.60;2.13;;;20.40;78.80;;;;;;5073693;28;20075;-77
2022/08/09 08:18:59;;;;;;;2.95;1.60;;;20.50;78.30;;;;;;5071065;28;20104;-76
2022/08/09 08:21:25;;;;;;;3.88;1.85;;;20.60;78.20;;;;;;5070639;28;20058;-80
2022/08/09 08:23:50;;;;;;;2.97;1.63;;;20.60;77.80;;;;;;5104505;28;20143;-80
2022/08/09 08:26:16;;;;;;;3.65;2.55;;;20.80;77.90;;;;;;5087312;28;20040;-79
2022/08/09 08:28:42;;;;;;;3.40;1.88;;;20.90;77.70;;;;;;5077062;28;20093;-76
2022/08/09 08:31:08;;;;;;;7.78;4.18;;;21.00;76.90;;;;;;5104704;28;20040;-78
2022/08/09 08:33:34;;;;;;;3.40;2.20;;;21.10;76.60;;;;;;5104195;28;20047;-78
2022/08/09 08:36:00;;;;;;;2.75;1.55;;;21.30;75.50;;;;;;5087737;28;20043;-79
2022/08/09 08:38:26;;;;;;;3.42;1.75;;;21.40;75.10;;;;;;5055487;28;20536;-79
2022/08/09 08:40:54;;;;;;;3.45;1.65;;;21.50;75.20;;;;;;5094233;28;20412;-78
2022/08/09 08:43:20;;;;;;;3.97;1.70;;;21.70;74.60;;;;;;5085182;28;20115;-79
2022/08/09 08:45:52;;;;;;;2.33;1.63;;;21.70;73.80;;;;;;5081368;28;21295;-79
2022/08/09 08:48:18;;;;;;;3.45;1.63;;;21.90;73.50;;;;;;5114189;27;20044;-78
2022/08/09 08:50:46;;;;;;;2.53;1.77;;;22.00;73.30;;;;;;5113966;27;20465;-79
2022/08/09 08:53:13;;;;;;;2.55;1.48;;;22.30;73.40;;;;;;5095367;28;20097;-77
2022/08/09 08:55:43;;;;;;;2.92;1.45;;;22.40;73.00;;;;;;5094865;28;20040;-79
2022/08/09 08:58:09;;;;;;;2.05;1.30;;;22.50;72.10;;;;;;5096289;28;20051;-80
2022/08/09 09:00:35;;;;;;;3.78;1.38;;;22.60;71.60;;;;;;5077346;28;20400;-79
2022/08/09 09:03:03;;;;;;;1.90;1.27;;;22.50;70.50;;;;;;5108102;28;20078;-79
2022/08/09 09:05:30;;;;;;;28.20;3.58;;;22.60;70.40;;;;;;5075394;28;20396;-79
2022/08/09 09:07:57;;;;;;;6.78;1.67;;;22.60;70.20;;;;;;5110040;28;20539;-82
2022/08/09 09:10:27;;;;;;;41.33;4.78;;;22.60;69.10;;;;;;5076037;28;20043;-80
2022/08/09 09:12:54;;;;;;;5.15;1.80;;;22.60;69.10;;;;;;5093442;28;20048;-82
2022/08/09 09:15:20;;;;;;;4.93;2.00;;;22.70;69.10;;;;;;5093111;28;20048;-81
2022/08/09 09:17:46;;;;;;;10.50;2.55;;;22.70;69.20;;;;;;5110110;28;20135;-79
2022/08/09 09:20:13;;;;;;;6.57;2.55;;;22.70;69.10;;;;;;5109874;28;20478;-75
2022/08/09 09:22:52;;;;;;;44.78;5.10;;;22.80;69.00;;;;;;5076041;28;20075;-80
2022/08/09 09:25:40;;;;;;;3.95;1.63;;;22.90;69.30;;;;;;5111144;27;20376;-79
2022/08/09 09:28:08;;;;;;;2.70;1.25;;;23.00;68.80;;;;;;5092766;28;20071;-78
2022/08/09 09:30:51;;;;;;;2.95;1.20;;;23.10;68.70;;;;;;5092833;28;20035;-78
2022/08/09 09:33:17;;;;;;;3.97;1.08;;;23.20;67.60;;;;;;5109480;28;20039;-80
2022/08/09 09:36:04;;;;;;;3.13;1.33;;;23.30;67.50;;;;;;5075989;28;20044;-79
2022/08/09 09:38:44;;;;;;;2.70;1.25;;;23.40;66.50;;;;;;5109534;28;20051;-78
2022/08/09 09:41:22;;;;;;;3.33;1.60;;;23.40;66.30;;;;;;5110268;28;20052;-81
2022/08/09 09:43:48;;;;;;;2.67;1.23;;;23.20;66.60;;;;;;5109985;28;20054;-81
2022/08/09 09:46:14;;;;;;;3.28;1.35;;;23.10;67.00;;;;;;5093778;28;20085;-79
2022/08/09 09:48:55;;;;;;;3.55;1.65;;;22.90;67.50;;;;;;5112084;28;20043;-80
2022/08/09 09:51:21;;;;;;;2.63;1.63;;;22.80;67.90;;;;;;5100299;28;20044;-80
2022/08/09 09:54:09;;;;;;;4.47;1.67;;;22.70;68.60;;;;;;5096576;28;20050;-80
2022/08/09 09:56:40;;;;;;;3.13;1.90;;;22.60;68.90;;;;;;5113638;28;20044;-79
2022/08/09 09:59:08;;;;;;;2.72;1.33;;;22.50;69.50;;;;;;5116022;28;20418;-78
2022/08/09 10:01:34;;;;;;;3.25;1.27;;;22.40;69.00;;;;;;5113641;28;20491;-79
2022/08/09 10:04:00;;;;;;;2.38;1.00;;;22.40;68.60;;;;;;5094761;28;20040;-78
2022/08/09 10:06:28;;;;;;;2.67;1.33;;;22.40;68.30;;;;;;5094247;28;20182;-78
2022/08/09 10:09:02;;;;;;;2.08;0.98;;;22.40;67.70;;;;;;5110379;28;20075;-80
2022/08/09 10:11:31;;;;;;;1.52;0.95;;;22.30;67.80;;;;;;5093024;28;20046;-82
2022/08/09 10:13:57;;;;;;;3.85;1.60;;;22.40;67.70;;;;;;5109484;28;20426;-78
2022/08/09 10:16:34;;;;;;;24.80;3.92;;;22.30;67.30;;;;;;5093001;28;20040;-77
2022/08/09 10:19:05;;;;;;;9.40;1.60;;;22.50;66.70;;;;;;5092326;28;20143;-78
2022/08/09 10:21:31;;;;;;;2.95;1.15;;;22.80;66.20;;;;;;5109138;28;20039;-79
2022/08/09 10:24:03;;;;;;;65.70;7.22;;;23.00;65.20;;;;;;5091973;28;20052;-79
2022/08/09 10:26:30;;;;;;;16.08;2.47;;;23.10;64.90;;;;;;5109416;28;20039;-81
2022/08/09 10:28:56;;;;;;;1.90;1.00;;;23.30;66.10;;;;;;5109786;28;20032;-80
2022/08/09 10:31:25;;;;;;;4.15;1.10;;;23.60;65.50;;;;;;5092417;28;20036;-81
2022/08/09 10:33:51;;;;;;;242.10;28.25;;;23.80;64.60;;;;;;5075186;28;20044;-81
2022/08/09 10:36:17;;;;;;;15.32;3.47;;;23.90;64.00;;;;;;5081256;28;20191;-79
2022/08/09 10:38:45;;;;;;;4.43;0.88;;;23.90;64.30;;;;;;5095434;28;20040;-79
2022/08/09 10:41:13;;;;;;;5.20;1.30;;;23.90;63.20;;;;;;5095378;28;20093;-80
2022/08/09 10:43:46;;;;;;;10.52;2.08;;;23.90;63.70;;;;;;5078381;28;20148;-79
2022/08/09 10:46:38;;;;;;;29.92;3.55;;;23.80;63.10;;;;;;5095831;28;20389;-79
2022/08/09 10:49:22;;;;;;;9.48;2.30;;;23.70;64.10;;;;;;5078418;28;20036;-79
2022/08/09 10:52:01;;;;;;;7.38;1.70;;;23.60;64.70;;;;;;5078408;28;20043;-79
2022/08/09 10:54:28;;;;;;;3.20;1.30;;;23.40;64.00;;;;;;5078874;28;20075;-78
2022/08/09 10:57:12;;;;;;;2.03;1.30;;;23.40;64.30;;;;;;5078443;28;20097;-82
2022/08/09 10:59:38;;;;;;;3.60;1.27;;;23.50;64.20;;;;;;5095134;28;20131;-84
2022/08/09 11:02:06;;;;;;;1.35;0.93;;;23.60;65.20;;;;;;5061415;28;20051;-80
2022/08/09 11:04:32;;;;;;;3.70;1.00;;;23.90;64.10;;;;;;5077768;28;20124;-82
2022/08/09 11:06:58;;;;;;;2.60;1.08;;;23.90;63.00;;;;;;5095168;28;20044;-81
2022/08/09 11:09:42;;;;;;;2.85;0.95;;;24.10;63.30;;;;;;5079161;28;20046;-82
2022/08/09 11:12:11;;;;;;;2.45;0.80;;;24.20;63.70;;;;;;5078020;28;20062;-82
2022/08/09 11:15:00;;;;;;;1.40;0.80;;;24.20;62.20;;;;;;5080970;28;20097;-82
2022/08/09 11:17:25;;;;;;;1.30;0.88;;;24.00;62.60;;;;;;5082958;28;20040;-83
2022/08/09 11:20:07;;;;;;;1.13;0.90;;;23.90;63.20;;;;;;5068240;28;20024;-81
2022/08/09 11:22:39;;;;;;;2.78;0.98;;;23.80;63.10;;;;;;5085022;28;20044;-82
2022/08/09 11:25:21;;;;;;;2.28;1.00;;;23.60;63.30;;;;;;5083267;28;20070;-82
2022/08/09 11:27:52;;;;;;;3.15;1.23;;;23.50;64.00;;;;;;5068951;28;20029;-83
2022/08/09 11:30:21;;;;;;;1.85;1.30;;;23.60;64.70;;;;;;5065440;28;20028;-84
2022/08/09 11:32:48;;;;;;;4.20;1.13;;;24.00;64.50;;;;;;5094156;28;20455;-83
2022/08/09 11:35:23;;;;;;;1.75;0.77;;;24.40;63.40;;;;;;5077602;28;20051;-83
2022/08/09 11:37:50;;;;;;;2.80;0.82;;;24.60;61.50;;;;;;5094416;28;20039;-82
2022/08/09 11:40:28;;;;;;;1.38;0.75;;;24.60;59.20;;;;;;5077577;28;20040;-80
2022/08/09 11:42:56;;;;;;;72.70;9.52;;;24.70;59.20;;;;;;5094345;28;20361;-81
2022/08/09 11:45:24;;;;;;;11.13;1.67;;;24.60;59.30;;;;;;5077204;28;20044;-81
2022/08/09 11:47:56;;;;;;;6.15;1.17;;;24.50;59.00;;;;;;5075863;28;20040;-82
2022/08/09 11:50:23;;;;;;;14.57;2.30;;;24.40;58.90;;;;;;5076675;28;20047;-81
2022/08/09 11:53:01;;;;;;;69.43;8.00;;;24.40;59.30;;;;;;5076924;28;20278;-82
2022/08/09 11:55:41;;;;;;;2.97;0.82;;;24.30;58.50;;;;;;5093770;28;20043;-81
2022/08/09 11:58:10;;;;;;;165.68;13.25;;;24.20;58.90;;;;;;5076340;28;20036;-82
2022/08/09 12:00:50;;;;;;;6.03;1.42;;;24.40;59.00;;;;;;5093358;28;20366;-80
2022/08/09 12:03:17;;;;;;;2.97;1.02;;;24.70;58.90;;;;;;5093134;28;20036;-81
2022/08/09 12:05:44;;;;;;;12.13;2.80;;;25.10;59.00;;;;;;5076420;28;20119;-80
2022/08/09 12:08:11;;;;;;;4.03;1.55;;;25.50;57.80;;;;;;5093058;28;20044;-79
2022/08/09 12:10:46;;;;;;;12.35;4.63;;;25.80;55.50;;;;;;5059691;28;20044;-81
2022/08/09 12:13:26;;;;;;;4.97;1.70;;;25.90;55.70;;;;;;5075901;28;20119;-76
2022/08/09 12:16:03;;;;;;;2.60;1.48;;;25.90;54.80;;;;;;5092949;28;20365;-78
2022/08/09 12:18:30;;;;;;;0.90;0.80;;;25.80;55.70;;;;;;5089908;28;20396;-78
2022/08/09 12:20:57;;;;;;;2.00;0.70;;;25.90;55.60;;;;;;5084080;28;20055;-78
2022/08/09 12:23:23;;;;;;;5.53;0.60;;;26.20;56.50;;;;;;5083238;28;20056;-78
2022/08/09 12:25:50;;;;;;;0.70;0.70;;;26.40;55.10;;;;;;5082061;28;20362;-78
2022/08/09 12:28:21;;;;;;;2.53;0.60;;;26.60;53.30;;;;;;5081310;28;20051;-78
2022/08/09 12:30:47;;;;;;;0.63;0.52;;;26.70;53.10;;;;;;5058269;28;20036;-76
2022/08/09 12:33:14;;;;;;;1.20;0.77;;;26.90;51.80;;;;;;5055366;28;20116;-78
2022/08/09 12:35:40;;;;;;;3.90;0.73;;;26.90;52.00;;;;;;5072216;28;20040;-78
2022/08/09 12:38:24;;;;;;;0.98;0.60;;;27.00;52.40;;;;;;5055606;28;20041;-78
2022/08/09 12:40:51;;;;;;;1.27;0.80;;;27.20;51.40;;;;;;5055558;28;20051;-81
2022/08/09 12:43:23;;;;;;;1.75;0.60;;;27.30;52.10;;;;;;5022491;28;20143;-80
2022/08/09 12:45:50;;;;;;;0.80;0.57;;;27.40;51.70;;;;;;5072230;28;20127;-83
2022/08/09 12:48:16;;;;;;;1.92;0.50;;;27.40;50.40;;;;;;5055594;28;20432;-80
2022/08/09 12:50:43;;;;;;;2.80;0.98;;;27.30;49.80;;;;;;5071941;28;20485;-81
2022/08/09 12:53:29;;;;;;;1.20;0.60;;;27.40;50.30;;;;;;5072113;28;20385;-81